createdAt,value
2017-04-28T00:00:50.304Z,2.6
2017-04-28T00:11:04.387Z,2.5
2017-04-28T00:21:18.458Z,2.5
2017-04-28T00:31:32.396Z,2
2017-04-28T00:41:46.951Z,1.7
2017-04-28T00:52:01.070Z,2
2017-04-28T01:02:14.814Z,1.9
2017-04-28T01:12:29.446Z,1.4
2017-04-28T01:22:45.140Z,0.6
2017-04-28T01:32:59.079Z,1.4
2017-04-28T01:43:13.438Z,1.6
2017-04-28T01:53:28.548Z,1.5
2017-04-28T02:03:43.276Z,1.2
2017-04-28T02:13:57.060Z,0.9
2017-04-28T02:24:12.420Z,0.7
2017-04-28T02:34:27.337Z,0.5
2017-04-28T02:44:42.943Z,0.7
2017-04-28T02:54:58.013Z,0.9
2017-04-28T03:05:12.079Z,0.8
2017-04-28T03:15:27.474Z,0.9
2017-04-28T03:25:41.744Z,1.1
2017-04-28T03:35:56.878Z,0.9
2017-04-28T03:46:11.047Z,0.9
2017-04-28T03:56:25.180Z,0.9
2017-04-28T04:06:40.248Z,0.9
2017-04-28T04:16:55.589Z,1
2017-04-28T04:27:10.160Z,1.2
2017-04-28T04:37:23.842Z,0.9
2017-04-28T04:47:39.443Z,0.8
2017-04-28T04:57:54.744Z,1
2017-04-28T05:08:08.898Z,1.5
2017-04-28T05:18:23.049Z,2.5
2017-04-28T05:28:38.007Z,3.1
2017-04-28T05:38:53.261Z,3.6
2017-04-28T05:49:07.294Z,4
2017-04-28T05:59:21.329Z,4.3
2017-04-28T06:09:35.951Z,4.5
2017-04-28T06:19:51.308Z,4.6
2017-04-28T06:30:06.113Z,4.9
2017-04-28T06:40:21.492Z,5.3
2017-04-28T06:50:36.529Z,5.5
2017-04-28T07:00:51.375Z,5.6
2017-04-28T07:11:05.570Z,5.8
2017-04-28T07:21:21.150Z,6.1
2017-04-28T07:31:35.616Z,6.3
2017-04-28T07:41:50.754Z,6.6
2017-04-28T07:52:05.891Z,6.7
2017-04-28T08:02:20.893Z,7
2017-04-28T08:12:34.792Z,7.4
2017-04-28T08:22:48.951Z,7.9
2017-04-28T08:33:02.720Z,8.3
2017-04-28T08:43:17.098Z,9.3
2017-04-28T08:53:32.012Z,8.6
2017-04-28T09:03:46.001Z,8.5
2017-04-28T09:14:00.292Z,8.3
2017-04-28T09:24:14.270Z,7.8
2017-04-28T09:34:29.014Z,8
2017-04-28T09:44:44.652Z,8.3
2017-04-28T09:54:58.630Z,8.3
2017-04-28T10:05:12.875Z,8.6
2017-04-28T10:15:27.294Z,8.7
2017-04-28T10:25:42.701Z,9
2017-04-28T10:35:58.345Z,9.5
2017-04-28T10:46:13.395Z,9.4
2017-04-28T10:56:28.960Z,9.9
2017-04-28T11:06:44.362Z,9.8
2017-04-28T11:16:58.695Z,10.3
2017-04-28T11:27:13.470Z,11.3
2017-04-28T11:37:29.034Z,11.7
2017-04-28T11:47:43.209Z,11.6
2017-04-28T11:57:58.566Z,12.3
2017-04-28T12:08:13.548Z,12.5
2017-04-28T12:18:29.131Z,12
2017-04-28T12:28:44.610Z,13.6
2017-04-28T12:38:59.051Z,12.8
2017-04-28T12:49:13.110Z,12.4
2017-04-28T12:59:27.546Z,13.2
2017-04-28T13:09:42.174Z,12.9
2017-04-28T13:19:56.246Z,13.9
2017-04-28T13:30:10.170Z,14.3
2017-04-28T13:40:25.124Z,12.9
2017-04-28T13:50:40.747Z,12.6
2017-04-28T14:00:56.244Z,11.7
2017-04-28T14:11:11.560Z,11.7
2017-04-28T14:21:25.897Z,12
2017-04-28T14:31:40.567Z,12.2
2017-04-28T14:41:54.520Z,12.3
2017-04-28T14:52:08.978Z,12.7
2017-04-28T15:02:23.539Z,12.8
2017-04-28T15:12:38.218Z,12.8
2017-04-28T15:22:53.565Z,12.9
2017-04-28T15:33:09.300Z,11.9
2017-04-28T15:43:25.036Z,11.9
2017-04-28T15:53:39.315Z,10.6
2017-04-28T16:03:53.122Z,10.7
2017-04-28T16:14:08.181Z,9.7
2017-04-28T16:24:23.189Z,9.2
2017-04-28T16:34:37.111Z,8.6
2017-04-28T16:44:51.047Z,8.6
2017-04-28T16:55:04.958Z,8.9
2017-04-28T17:05:19.128Z,9.3
2017-04-28T17:15:34.342Z,9.7
2017-04-28T17:25:49.521Z,9.4
2017-04-28T17:36:03.699Z,9.4
2017-04-28T17:46:18.667Z,9.3
2017-04-28T17:56:34.266Z,9.2
2017-04-28T18:06:48.656Z,9.3
2017-04-28T18:17:04.240Z,9.3
2017-04-28T18:27:19.355Z,9
2017-04-28T18:37:33.262Z,8.9
2017-04-28T18:47:47.884Z,8.5
2017-04-28T18:58:03.222Z,8.3
2017-04-28T19:08:18.017Z,8.1
2017-04-28T19:18:32.412Z,7.6
2017-04-28T19:28:46.777Z,7.3
2017-04-28T19:39:00.800Z,7
2017-04-28T19:49:16.076Z,7.3
2017-04-28T19:59:29.792Z,7.3
2017-04-28T20:09:43.511Z,6.8
2017-04-28T20:19:58.762Z,6.1
2017-04-28T20:30:12.989Z,5.8
2017-04-28T20:40:26.876Z,5.6
2017-04-28T20:50:41.523Z,5.9
2017-04-28T21:00:56.774Z,5.9
2017-04-28T21:11:10.544Z,6.1
2017-04-28T21:21:25.628Z,5.8
2017-04-28T21:31:40.768Z,5.6
2017-04-28T21:41:54.746Z,5.2
2017-04-28T21:52:09.447Z,5.4
2017-04-28T22:02:24.012Z,5.9
2017-04-28T22:12:38.557Z,6
2017-04-28T22:22:53.401Z,6.1
2017-04-28T22:33:09.094Z,6.1
2017-04-28T22:43:22.990Z,6
2017-04-28T22:53:38.387Z,5.7
2017-04-28T23:03:52.673Z,5.9
2017-04-28T23:14:08.123Z,6
2017-04-28T23:24:22.411Z,5.9
2017-04-28T23:34:37.814Z,5.8
2017-04-28T23:44:51.510Z,5.8
2017-04-28T23:55:05.954Z,5.7
